PWSweather.com
Personal Weather Stations
Station Observations
ARECO747
Argentina , San Antonio ArecoAR Bs.As

Argentina San Antonio ArecoAR Bs.As

Lat: -34.24447275818, Lon: -59.47654187679

Elevation: 102

Station Type: InformaciĆ³n generada con nuevo Microchip Ethernet conectado a estaciĆ³n WH1081

http://www.meteostar.com.ar

Latest ConditionsUpdated 7:29:12 PM GMT-03:57 Monday, Oct 15, 2018
Currently Today's Max Today's Min Today's Average
Temperature 71.1°F21.7°C 81.9°F27.7°C 51.1°F10.6°C 68.1°F20.1°C
Dew Point 53.1°F11.7°C 57.6°F14.2°C 44.8°F7.1°C 51.5°F10.8°C
Winds 1.6 mph 2.6 kmh 11.4 mph -18.3 kmh - - 4.9 mph 7.9 kmh
Wind Gusts 6.0 mph9.7 kmh 16.8 mph27.0 kmh - -
Humidity 53% 79% 38% 57%
Pressure 29.71 in1006.1 mb 30.47 in1031.8 mb 29.70 in1005.8 mb -
Hour Temp Dew Point Humidity Winds Wind Gusts Pressure Precip Precip Rate Daily Precip Total
07:29 PM 71.1°F21.7°C 53.1°F11.7°C 53% 1.6 mph 2.6 kmh 6.0 mph9.7 kmh 29.71 in1006.1 mb 0.00 in0.0 mm 0.00 in0.0 mm 0.00 in0.0 mm
07:24 PM 71.6°F22.0°C 53.6°F12.0°C 53% 2.2 mph 3.5 kmh 4.5 mph7.2 kmh 29.71 in1006.1 mb 0.00 in0.0 mm 0.00 in0.0 mm 0.00 in0.0 mm
07:18 PM 72.1°F22.3°C 54.1°F12.3°C 53% 2.2 mph 3.5 kmh 6.0 mph9.7 kmh 29.71 in1006.1 mb 0.00 in0.0 mm 0.00 in0.0 mm 0.00 in0.0 mm
07:13 PM 72.9°F22.7°C 54.7°F12.6°C 53% 2.2 mph 3.5 kmh 4.5 mph7.2 kmh 29.71 in1006.1 mb 0.00 in0.0 mm 0.00 in0.0 mm 0.00 in0.0 mm
07:08 PM 73.9°F23.3°C 55.2°F12.9°C 52% 1.6 mph 2.6 kmh 6.9 mph11.1 kmh 29.70 in1005.8 mb 0.00 in0.0 mm 0.00 in0.0 mm 0.00 in0.0 mm
07:03 PM 74.7°F23.7°C 55.9°F13.3°C 52% 1.6 mph NW2.6 kmh NW 7.6 mph12.2 kmh 29.70 in1005.8 mb 0.00 in0.0 mm 0.00 in0.0 mm 0.00 in0.0 mm
06:58 PM 75.4°F24.1°C 55.4°F13.0°C 50% 4.5 mph NW7.2 kmh NW 7.6 mph12.2 kmh 29.70 in1005.8 mb 0.00 in0.0 mm 0.00 in0.0 mm 0.00 in0.0 mm
06:53 PM 76.1°F24.5°C 56.1°F13.4°C 50% 3.1 mph 5.0 kmh 6.0 mph9.7 kmh 29.70 in1005.8 mb 0.00 in0.0 mm 0.00 in0.0 mm 0.00 in0.0 mm
06:47 PM 76.6°F24.8°C 56.1°F13.4°C 49% 3.1 mph 5.0 kmh 5.4 mph8.7 kmh 29.70 in1005.8 mb 0.00 in0.0 mm 0.00 in0.0 mm 0.00 in0.0 mm
06:42 PM 77.2°F25.1°C 55.4°F13.0°C 47% 3.1 mph 5.0 kmh 6.9 mph11.1 kmh 29.70 in1005.8 mb 0.00 in0.0 mm 0.00 in0.0 mm 0.00 in0.0 mm
06:37 PM 77.5°F25.3°C 55.0°F12.8°C 46% 3.1 mph SW5.0 kmh SW 7.6 mph12.2 kmh 29.70 in1005.8 mb 0.00 in0.0 mm 0.00 in0.0 mm 0.00 in0.0 mm
06:32 PM 77.9°F25.5°C 54.9°F12.7°C 45% 3.1 mph 5.0 kmh 10.7 mph17.2 kmh 29.71 in1006.1 mb 0.00 in0.0 mm 0.00 in0.0 mm 0.00 in0.0 mm
06:27 PM 78.3°F25.7°C 54.5°F12.5°C 44% 2.2 mph W3.5 kmh W 6.9 mph11.1 kmh 29.71 in1006.1 mb 0.00 in0.0 mm 0.00 in0.0 mm 0.00 in0.0 mm
06:22 PM 78.6°F25.9°C 54.9°F12.7°C 44% 3.1 mph NW5.0 kmh NW 7.6 mph12.2 kmh 29.71 in1006.1 mb 0.00 in0.0 mm 0.00 in0.0 mm 0.00 in0.0 mm
06:16 PM 79.0°F26.1°C 54.5°F12.5°C 43% 4.5 mph NNE7.2 kmh NNE 7.6 mph12.2 kmh 29.70 in1005.8 mb 0.00 in0.0 mm 0.00 in0.0 mm 0.00 in0.0 mm
06:11 PM 79.0°F26.1°C 54.0°F12.2°C 42% 2.2 mph NW3.5 kmh NW 8.3 mph13.4 kmh 29.70 in1005.8 mb 0.00 in0.0 mm 0.00 in0.0 mm 0.00 in0.0 mm
06:06 PM 79.0°F26.1°C 53.2°F11.8°C 41% 6.0 mph NW9.7 kmh NW 9.8 mph15.8 kmh 29.70 in1005.8 mb 0.00 in0.0 mm 0.00 in0.0 mm 0.00 in0.0 mm
06:01 PM 79.9°F26.6°C 53.4°F11.9°C 40% 5.4 mph NW8.7 kmh NW 8.3 mph13.4 kmh 29.70 in1005.8 mb 0.00 in0.0 mm 0.00 in0.0 mm 0.00 in0.0 mm
05:56 PM 80.1°F26.7°C 53.6°F12.0°C 40% 5.4 mph 8.7 kmh 7.6 mph12.2 kmh 29.71 in1006.1 mb 0.00 in0.0 mm 0.00 in0.0 mm 0.00 in0.0 mm
05:50 PM 80.4°F26.9°C 54.0°F12.2°C 40% 3.1 mph 5.0 kmh 7.6 mph12.2 kmh 29.71 in1006.1 mb 0.00 in0.0 mm 0.00 in0.0 mm 0.00 in0.0 mm
05:45 PM 79.9°F26.6°C 53.4°F11.9°C 40% 5.4 mph W8.7 kmh W 9.2 mph14.8 kmh 29.70 in1005.8 mb 0.00 in0.0 mm 0.00 in0.0 mm 0.00 in0.0 mm
05:40 PM 80.6°F27.0°C 55.4°F13.0°C 42% 6.9 mph NW11.1 kmh NW 9.8 mph15.8 kmh 29.70 in1005.8 mb 0.00 in0.0 mm 0.00 in0.0 mm 0.00 in0.0 mm
05:35 PM 81.1°F27.3°C 55.9°F13.3°C 42% 5.4 mph NW8.7 kmh NW 8.3 mph13.4 kmh 29.71 in1006.1 mb 0.00 in0.0 mm 0.00 in0.0 mm 0.00 in0.0 mm
05:30 PM 80.8°F27.1°C 52.9°F11.6°C 38% 5.4 mph W8.7 kmh W 13.0 mph20.9 kmh 29.70 in1005.8 mb 0.00 in0.0 mm 0.00 in0.0 mm 0.00 in0.0 mm
05:25 PM 81.1°F27.3°C 55.2°F12.9°C 41% 5.4 mph NW8.7 kmh NW 10.7 mph17.2 kmh 29.70 in1005.8 mb 0.00 in0.0 mm 0.00 in0.0 mm 0.00 in0.0 mm
05:19 PM 81.0°F27.2°C 55.8°F13.2°C 42% 5.4 mph NW8.7 kmh NW 13.0 mph20.9 kmh 29.70 in1005.8 mb 0.00 in0.0 mm 0.00 in0.0 mm 0.00 in0.0 mm
05:14 PM 80.4°F26.9°C 54.5°F12.5°C 41% 6.0 mph 9.7 kmh 12.1 mph19.5 kmh 29.71 in1006.1 mb 0.00 in0.0 mm 0.00 in0.0 mm 0.00 in0.0 mm
05:09 PM 80.1°F26.7°C 54.3°F12.4°C 41% 6.9 mph 11.1 kmh 12.1 mph19.5 kmh 29.70 in1005.8 mb 0.00 in0.0 mm 0.00 in0.0 mm 0.00 in0.0 mm
05:04 PM 80.6°F27.0°C 56.1°F13.4°C 43% 8.3 mph NW13.4 kmh NW 13.0 mph20.9 kmh 29.70 in1005.8 mb 0.00 in0.0 mm 0.00 in0.0 mm 0.00 in0.0 mm
04:59 PM 79.9°F26.6°C 54.1°F12.3°C 41% 7.6 mph 12.2 kmh 14.5 mph23.3 kmh 29.71 in1006.1 mb 0.00 in0.0 mm 0.00 in0.0 mm 0.00 in0.0 mm
04:54 PM 80.6°F27.0°C 55.4°F13.0°C 42% 9.2 mph NW14.8 kmh NW 13.6 mph21.9 kmh 29.71 in1006.1 mb 0.00 in0.0 mm 0.00 in0.0 mm 0.00 in0.0 mm
04:48 PM 80.6°F27.0°C 54.7°F12.6°C 41% 7.6 mph NW12.2 kmh NW 13.6 mph21.9 kmh 29.71 in1006.1 mb 0.00 in0.0 mm 0.00 in0.0 mm 0.00 in0.0 mm
04:43 PM 81.1°F27.3°C 55.9°F13.3°C 42% 8.3 mph NW13.4 kmh NW 13.0 mph20.9 kmh 29.71 in1006.1 mb 0.00 in0.0 mm 0.00 in0.0 mm 0.00 in0.0 mm
04:38 PM 80.6°F27.0°C 55.4°F13.0°C 42% 6.0 mph NW9.7 kmh NW 12.1 mph19.5 kmh 29.71 in1006.1 mb 0.00 in0.0 mm 0.00 in0.0 mm 0.00 in0.0 mm
04:33 PM 80.4°F26.9°C 54.0°F12.2°C 40% 6.0 mph 9.7 kmh 13.6 mph21.9 kmh 29.71 in1006.1 mb 0.00 in0.0 mm 0.00 in0.0 mm 0.00 in0.0 mm
04:28 PM 80.6°F27.0°C 55.4°F13.0°C 42% 5.4 mph NW8.7 kmh NW 15.2 mph24.5 kmh 29.71 in1006.1 mb 0.00 in0.0 mm 0.00 in0.0 mm 0.00 in0.0 mm
04:23 PM 80.6°F27.0°C 55.4°F13.0°C 42% 10.7 mph 17.2 kmh 14.5 mph23.3 kmh 29.71 in1006.1 mb 0.00 in0.0 mm 0.00 in0.0 mm 0.00 in0.0 mm
04:17 PM 81.0°F27.2°C 54.3°F12.4°C 40% 8.3 mph NW13.4 kmh NW 13.6 mph21.9 kmh 29.71 in1006.1 mb 0.00 in0.0 mm 0.00 in0.0 mm 0.00 in0.0 mm
04:12 PM 80.8°F27.1°C 55.6°F13.1°C 42% 9.2 mph NW14.8 kmh NW 14.5 mph23.3 kmh 29.72 in1006.4 mb 0.00 in0.0 mm 0.00 in0.0 mm 0.00 in0.0 mm
04:07 PM 81.3°F27.4°C 55.4°F13.0°C 41% 8.3 mph NW13.4 kmh NW 13.6 mph21.9 kmh 29.72 in1006.4 mb 0.00 in0.0 mm 0.00 in0.0 mm 0.00 in0.0 mm
04:02 PM 81.7°F27.6°C 55.8°F13.2°C 41% 6.9 mph NW11.1 kmh NW 11.4 mph18.3 kmh 29.72 in1006.4 mb 0.00 in0.0 mm 0.00 in0.0 mm 0.00 in0.0 mm
03:57 PM 81.3°F27.4°C 56.1°F13.4°C 42% 9.2 mph NW14.8 kmh NW 12.1 mph19.5 kmh 29.72 in1006.4 mb 0.00 in0.0 mm 0.00 in0.0 mm 0.00 in0.0 mm
03:52 PM 81.1°F27.3°C 55.9°F13.3°C 42% 5.4 mph NE8.7 kmh NE 13.6 mph21.9 kmh 29.73 in1006.8 mb 0.00 in0.0 mm 0.00 in0.0 mm 0.00 in0.0 mm
03:46 PM 81.3°F27.4°C 56.1°F13.4°C 42% 10.7 mph 17.2 kmh 13.6 mph21.9 kmh 29.73 in1006.8 mb 0.00 in0.0 mm 0.00 in0.0 mm 0.00 in0.0 mm
03:41 PM 81.1°F27.3°C 55.9°F13.3°C 42% 6.0 mph 9.7 kmh 14.5 mph23.3 kmh 29.73 in1006.8 mb 0.00 in0.0 mm 0.00 in0.0 mm 0.00 in0.0 mm
03:36 PM 81.3°F27.4°C 56.1°F13.4°C 42% 6.9 mph NW11.1 kmh NW 13.6 mph21.9 kmh 29.73 in1006.8 mb 0.00 in0.0 mm 0.00 in0.0 mm 0.00 in0.0 mm
03:31 PM 81.5°F27.5°C 56.1°F13.4°C 42% 7.6 mph NW12.2 kmh NW 13.0 mph20.9 kmh 29.74 in1007.1 mb 0.00 in0.0 mm 0.00 in0.0 mm 0.00 in0.0 mm
03:26 PM 81.5°F27.5°C 56.1°F13.4°C 42% 8.3 mph 13.4 kmh 11.4 mph18.3 kmh 29.74 in1007.1 mb 0.00 in0.0 mm 0.00 in0.0 mm 0.00 in0.0 mm
03:21 PM 81.9°F27.7°C 57.2°F14.0°C 43% 7.6 mph 12.2 kmh 11.4 mph18.3 kmh 29.74 in1007.1 mb 0.00 in0.0 mm 0.00 in0.0 mm 0.00 in0.0 mm
03:15 PM 81.5°F27.5°C 56.1°F13.4°C 42% 7.6 mph NW12.2 kmh NW 11.4 mph18.3 kmh 29.75 in1007.5 mb 0.00 in0.0 mm 0.00 in0.0 mm 0.00 in0.0 mm
03:10 PM 81.7°F27.6°C 55.8°F13.2°C 41% 8.3 mph NNW13.4 kmh NNW 12.1 mph19.5 kmh 29.75 in1007.5 mb 0.00 in0.0 mm 0.00 in0.0 mm 0.00 in0.0 mm
03:05 PM 81.7°F27.6°C 55.0°F12.8°C 40% 8.3 mph NW13.4 kmh NW 13.0 mph20.9 kmh 29.75 in1007.5 mb 0.00 in0.0 mm 0.00 in0.0 mm 0.00 in0.0 mm
03:00 PM 81.9°F27.7°C 55.9°F13.3°C 41% 9.8 mph WNW15.8 kmh WNW 13.0 mph20.9 kmh 29.75 in1007.5 mb 0.00 in0.0 mm 0.00 in0.0 mm 0.00 in0.0 mm
02:55 PM 81.7°F27.6°C 56.3°F13.5°C 42% 6.9 mph NW11.1 kmh NW 10.7 mph17.2 kmh 29.76 in1007.8 mb 0.00 in0.0 mm 0.00 in0.0 mm 0.00 in0.0 mm
02:50 PM 81.0°F27.2°C 55.8°F13.2°C 42% 6.0 mph 9.7 kmh 12.1 mph19.5 kmh 29.76 in1007.8 mb 0.00 in0.0 mm 0.00 in0.0 mm 0.00 in0.0 mm
02:44 PM 81.1°F27.3°C 55.9°F13.3°C 42% 6.9 mph NW11.1 kmh NW 13.0 mph20.9 kmh 29.76 in1007.8 mb 0.00 in0.0 mm 0.00 in0.0 mm 0.00 in0.0 mm
02:39 PM 80.8°F27.1°C 55.6°F13.1°C 42% 5.4 mph 8.7 kmh 12.1 mph19.5 kmh 29.76 in1007.8 mb 0.00 in0.0 mm 0.00 in0.0 mm 0.00 in0.0 mm
02:34 PM 81.0°F27.2°C 56.3°F13.5°C 43% 7.6 mph 12.2 kmh 13.0 mph20.9 kmh 29.77 in1008.1 mb 0.00 in0.0 mm 0.00 in0.0 mm 0.00 in0.0 mm
02:29 PM 81.3°F27.4°C 56.7°F13.7°C 43% 8.3 mph NNE13.4 kmh NNE 13.6 mph21.9 kmh 29.77 in1008.1 mb 0.00 in0.0 mm 0.00 in0.0 mm 0.00 in0.0 mm
02:24 PM 81.1°F27.3°C 56.5°F13.6°C 43% 4.5 mph NE7.2 kmh NE 13.6 mph21.9 kmh 29.77 in1008.1 mb 0.00 in0.0 mm 0.00 in0.0 mm 0.00 in0.0 mm
02:19 PM 81.1°F27.3°C 57.2°F14.0°C 44% 6.9 mph NW11.1 kmh NW 11.4 mph18.3 kmh 29.77 in1008.1 mb 0.00 in0.0 mm 0.00 in0.0 mm 0.00 in0.0 mm
02:13 PM 81.0°F27.2°C 56.3°F13.5°C 43% 8.3 mph 13.4 kmh 13.0 mph20.9 kmh 29.78 in1008.5 mb 0.00 in0.0 mm 0.00 in0.0 mm 0.00 in0.0 mm
02:08 PM 81.0°F27.2°C 57.6°F14.2°C 45% 4.5 mph E7.2 kmh E 11.4 mph18.3 kmh 29.78 in1008.5 mb 0.00 in0.0 mm 0.00 in0.0 mm 0.00 in0.0 mm
02:03 PM 80.6°F27.0°C 56.7°F13.7°C 44% 6.9 mph 11.1 kmh 10.7 mph17.2 kmh 29.78 in1008.5 mb 0.00 in0.0 mm 0.00 in0.0 mm 0.00 in0.0 mm
01:58 PM 79.9°F26.6°C 55.4°F13.0°C 43% 6.0 mph NW9.7 kmh NW 13.6 mph21.9 kmh 29.79 in1008.8 mb 0.00 in0.0 mm 0.00 in0.0 mm 0.00 in0.0 mm
01:53 PM 80.6°F27.0°C 56.7°F13.7°C 44% 6.9 mph 11.1 kmh 13.6 mph21.9 kmh 29.79 in1008.8 mb 0.00 in0.0 mm 0.00 in0.0 mm 0.00 in0.0 mm
01:48 PM 80.8°F27.1°C 57.4°F14.1°C 45% 5.4 mph 8.7 kmh 12.1 mph19.5 kmh 29.79 in1008.8 mb 0.00 in0.0 mm 0.00 in0.0 mm 0.00 in0.0 mm
01:42 PM 80.4°F26.9°C 56.5°F13.6°C 44% 6.9 mph 11.1 kmh 10.7 mph17.2 kmh 29.80 in1009.1 mb 0.00 in0.0 mm 0.00 in0.0 mm 0.00 in0.0 mm
01:37 PM 80.4°F26.9°C 55.9°F13.3°C 43% 6.9 mph SW11.1 kmh SW 13.0 mph20.9 kmh 29.80 in1009.1 mb 0.00 in0.0 mm 0.00 in0.0 mm 0.00 in0.0 mm
01:32 PM 80.4°F26.9°C 56.5°F13.6°C 44% 9.2 mph 14.8 kmh 12.1 mph19.5 kmh 29.80 in1009.1 mb 0.00 in0.0 mm 0.00 in0.0 mm 0.00 in0.0 mm
01:27 PM 79.7°F26.5°C 55.9°F13.3°C 44% 5.4 mph 8.7 kmh 13.6 mph21.9 kmh 29.80 in1009.1 mb 0.00 in0.0 mm 0.00 in0.0 mm 0.00 in0.0 mm
01:22 PM 79.9°F26.6°C 55.9°F13.3°C 44% 6.9 mph NW11.1 kmh NW 14.5 mph23.3 kmh 29.80 in1009.1 mb 0.00 in0.0 mm 0.00 in0.0 mm 0.00 in0.0 mm
01:17 PM 79.7°F26.5°C 55.9°F13.3°C 44% 6.0 mph 9.7 kmh 14.5 mph23.3 kmh 29.81 in1009.5 mb 0.00 in0.0 mm 0.00 in0.0 mm 0.00 in0.0 mm
01:11 PM 79.7°F26.5°C 55.2°F12.9°C 43% 8.3 mph NW13.4 kmh NW 14.5 mph23.3 kmh 29.81 in1009.5 mb 0.00 in0.0 mm 0.00 in0.0 mm 0.00 in0.0 mm
01:06 PM 79.7°F26.5°C 55.9°F13.3°C 44% 5.4 mph 8.7 kmh 14.5 mph23.3 kmh 29.81 in1009.5 mb 0.00 in0.0 mm 0.00 in0.0 mm 0.00 in0.0 mm
01:01 PM 79.7°F26.5°C 55.2°F12.9°C 43% 8.3 mph NW13.4 kmh NW 15.9 mph25.6 kmh 29.82 in1009.8 mb 0.00 in0.0 mm 0.00 in0.0 mm 0.00 in0.0 mm
12:56 PM 79.7°F26.5°C 55.9°F13.3°C 44% 6.9 mph NW11.1 kmh NW 12.1 mph19.5 kmh 29.82 in1009.8 mb 0.00 in0.0 mm 0.00 in0.0 mm 0.00 in0.0 mm
12:51 PM 79.0°F26.1°C 54.5°F12.5°C 43% 6.9 mph NW11.1 kmh NW 15.9 mph25.6 kmh 29.82 in1009.8 mb 0.00 in0.0 mm 0.00 in0.0 mm 0.00 in0.0 mm
12:46 PM 79.0°F26.1°C 55.2°F12.9°C 44% 4.5 mph NW7.2 kmh NW 12.1 mph19.5 kmh 29.83 in1010.2 mb 0.00 in0.0 mm 0.00 in0.0 mm 0.00 in0.0 mm
12:40 PM 79.0°F26.1°C 55.2°F12.9°C 44% 6.9 mph NW11.1 kmh NW 11.4 mph18.3 kmh 29.83 in1010.2 mb 0.00 in0.0 mm 0.00 in0.0 mm 0.00 in0.0 mm
12:35 PM 78.8°F26.0°C 54.5°F12.5°C 43% 5.4 mph NW8.7 kmh NW 11.4 mph18.3 kmh 29.83 in1010.2 mb 0.00 in0.0 mm 0.00 in0.0 mm 0.00 in0.0 mm
12:30 PM 78.4°F25.8°C 53.4°F11.9°C 42% 6.9 mph 11.1 kmh 12.1 mph19.5 kmh 29.83 in1010.2 mb 0.00 in0.0 mm 0.00 in0.0 mm 0.00 in0.0 mm
12:25 PM 78.1°F25.6°C 54.3°F12.4°C 44% 5.4 mph W8.7 kmh W 13.0 mph20.9 kmh 29.83 in1010.2 mb 0.00 in0.0 mm 0.00 in0.0 mm 0.00 in0.0 mm
12:20 PM 77.5°F25.3°C 54.5°F12.5°C 45% 7.6 mph NNW12.2 kmh NNW 12.1 mph19.5 kmh 29.83 in1010.2 mb 0.00 in0.0 mm 0.00 in0.0 mm 0.00 in0.0 mm
12:14 PM 78.3°F25.7°C 54.5°F12.5°C 44% 6.9 mph NW11.1 kmh NW 11.4 mph18.3 kmh 29.83 in1010.2 mb 0.00 in0.0 mm 0.00 in0.0 mm 0.00 in0.0 mm
12:09 PM 77.7°F25.4°C 54.1°F12.3°C 44% 9.8 mph W15.8 kmh W 13.0 mph20.9 kmh 29.83 in1010.2 mb 0.00 in0.0 mm 0.00 in0.0 mm 0.00 in0.0 mm
12:04 PM 77.4°F25.2°C 53.8°F12.1°C 44% 9.2 mph NW14.8 kmh NW 13.6 mph21.9 kmh 29.84 in1010.5 mb 0.00 in0.0 mm 0.00 in0.0 mm 0.00 in0.0 mm
11:59 AM 77.0°F25.0°C 54.7°F12.6°C 46% 4.5 mph 7.2 kmh 12.1 mph19.5 kmh 29.84 in1010.5 mb 0.00 in0.0 mm 0.00 in0.0 mm 0.00 in0.0 mm
11:54 AM 76.6°F24.8°C 54.9°F12.7°C 47% 7.6 mph NW12.2 kmh NW 13.0 mph20.9 kmh 29.84 in1010.5 mb 0.00 in0.0 mm 0.00 in0.0 mm 0.00 in0.0 mm
11:49 AM 76.1°F24.5°C 54.3°F12.4°C 47% 4.5 mph NW7.2 kmh NW 13.6 mph21.9 kmh 29.84 in1010.5 mb 0.00 in0.0 mm 0.00 in0.0 mm 0.00 in0.0 mm
11:43 AM 75.7°F24.3°C 54.7°F12.6°C 48% 9.8 mph NW15.8 kmh NW 13.6 mph21.9 kmh 29.85 in1010.8 mb 0.00 in0.0 mm 0.00 in0.0 mm 0.00 in0.0 mm
11:38 AM 75.7°F24.3°C 54.7°F12.6°C 48% 9.2 mph NW14.8 kmh NW 15.9 mph25.6 kmh 29.85 in1010.8 mb 0.00 in0.0 mm 0.00 in0.0 mm 0.00 in0.0 mm
11:33 AM 76.1°F24.5°C 55.0°F12.8°C 48% 7.6 mph NW12.2 kmh NW 12.1 mph19.5 kmh 29.85 in1010.8 mb 0.00 in0.0 mm 0.00 in0.0 mm 0.00 in0.0 mm
11:28 AM 75.7°F24.3°C 54.7°F12.6°C 48% 6.9 mph NW11.1 kmh NW 12.1 mph19.5 kmh 29.85 in1010.8 mb 0.00 in0.0 mm 0.00 in0.0 mm 0.00 in0.0 mm
11:23 AM 75.6°F24.2°C 55.0°F12.8°C 49% 8.3 mph NW13.4 kmh NW 13.6 mph21.9 kmh 29.85 in1010.8 mb 0.00 in0.0 mm 0.00 in0.0 mm 0.00 in0.0 mm
11:18 AM 75.6°F24.2°C 55.6°F13.1°C 50% 6.9 mph NW11.1 kmh NW 16.8 mph27.0 kmh 29.85 in1010.8 mb 0.00 in0.0 mm 0.00 in0.0 mm 0.00 in0.0 mm
11:12 AM 75.0°F23.9°C 55.6°F13.1°C 51% 6.0 mph NW9.7 kmh NW 12.1 mph19.5 kmh 29.85 in1010.8 mb 0.00 in0.0 mm 0.00 in0.0 mm 0.00 in0.0 mm
11:07 AM 74.3°F23.5°C 55.0°F12.8°C 51% 7.6 mph NW12.2 kmh NW 15.2 mph24.5 kmh 29.86 in1011.2 mb 0.00 in0.0 mm 0.00 in0.0 mm 0.00 in0.0 mm
11:02 AM 74.1°F23.4°C 54.9°F12.7°C 51% 8.3 mph NW13.4 kmh NW 15.2 mph24.5 kmh 29.86 in1011.2 mb 0.00 in0.0 mm 0.00 in0.0 mm 0.00 in0.0 mm
10:57 AM 74.7°F23.7°C 55.4°F13.0°C 51% 8.3 mph NW13.4 kmh NW 11.4 mph18.3 kmh 29.86 in1011.2 mb 0.00 in0.0 mm 0.00 in0.0 mm 0.00 in0.0 mm
10:52 AM 74.1°F23.4°C 54.9°F12.7°C 51% 6.0 mph NW9.7 kmh NW 13.0 mph20.9 kmh 29.87 in1011.5 mb 0.00 in0.0 mm 0.00 in0.0 mm 0.00 in0.0 mm
10:47 AM 73.4°F23.0°C 54.1°F12.3°C 51% 6.0 mph NW9.7 kmh NW 13.0 mph20.9 kmh 29.87 in1011.5 mb 0.00 in0.0 mm 0.00 in0.0 mm 0.00 in0.0 mm
10:41 AM 73.9°F23.3°C 54.7°F12.6°C 51% 10.7 mph NW17.2 kmh NW 13.6 mph21.9 kmh 29.86 in1011.2 mb 0.00 in0.0 mm 0.00 in0.0 mm 0.00 in0.0 mm
10:36 AM 73.6°F23.1°C 54.9°F12.7°C 52% 8.3 mph NW13.4 kmh NW 11.4 mph18.3 kmh 29.87 in1011.5 mb 0.00 in0.0 mm 0.00 in0.0 mm 0.00 in0.0 mm
10:31 AM 73.0°F22.8°C 54.9°F12.7°C 53% 6.9 mph NW11.1 kmh NW 10.7 mph17.2 kmh 29.86 in1011.2 mb 0.00 in0.0 mm 0.00 in0.0 mm 0.00 in0.0 mm
10:26 AM 72.0°F22.2°C 54.0°F12.2°C 53% 6.9 mph NW11.1 kmh NW 13.0 mph20.9 kmh 29.87 in1011.5 mb 0.00 in0.0 mm 0.00 in0.0 mm 0.00 in0.0 mm
10:21 AM 72.0°F22.2°C 54.0°F12.2°C 53% 9.2 mph 14.8 kmh 13.0 mph20.9 kmh 29.87 in1011.5 mb 0.00 in0.0 mm 0.00 in0.0 mm 0.00 in0.0 mm
10:16 AM 71.4°F21.9°C 54.0°F12.2°C 54% 9.8 mph NW15.8 kmh NW 13.0 mph20.9 kmh 29.87 in1011.5 mb 0.00 in0.0 mm 0.00 in0.0 mm 0.00 in0.0 mm
10:10 AM 70.5°F21.4°C 52.5°F11.4°C 53% 8.3 mph NW13.4 kmh NW 14.5 mph23.3 kmh 29.87 in1011.5 mb 0.00 in0.0 mm 0.00 in0.0 mm 0.00 in0.0 mm
10:05 AM 71.2°F21.8°C 53.8°F12.1°C 54% 8.3 mph NW13.4 kmh NW 11.4 mph18.3 kmh 29.87 in1011.5 mb 0.00 in0.0 mm 0.00 in0.0 mm 0.00 in0.0 mm
10:00 AM 70.7°F21.5°C 53.2°F11.8°C 54% 6.0 mph 9.7 kmh 11.4 mph18.3 kmh 29.87 in1011.5 mb 0.00 in0.0 mm 0.00 in0.0 mm 0.00 in0.0 mm
09:55 AM 70.2°F21.2°C 52.7°F11.5°C 54% 5.4 mph WNW8.7 kmh WNW 13.6 mph21.9 kmh 29.88 in1011.9 mb 0.00 in0.0 mm 0.00 in0.0 mm 0.00 in0.0 mm
09:50 AM 69.4°F20.8°C 52.5°F11.4°C 55% 7.6 mph W12.2 kmh W 13.6 mph21.9 kmh 29.88 in1011.9 mb 0.00 in0.0 mm 0.00 in0.0 mm 0.00 in0.0 mm
09:45 AM 69.6°F20.9°C 52.2°F11.2°C 54% 7.6 mph NW12.2 kmh NW 14.5 mph23.3 kmh 29.88 in1011.9 mb 0.00 in0.0 mm 0.00 in0.0 mm 0.00 in0.0 mm
09:39 AM 69.6°F20.9°C 52.7°F11.5°C 55% 6.0 mph WNW9.7 kmh WNW 13.0 mph20.9 kmh 29.88 in1011.9 mb 0.00 in0.0 mm 0.00 in0.0 mm 0.00 in0.0 mm
09:34 AM 69.6°F20.9°C 53.2°F11.8°C 56% 5.4 mph NW8.7 kmh NW 11.4 mph18.3 kmh 29.88 in1011.9 mb 0.00 in0.0 mm 0.00 in0.0 mm 0.00 in0.0 mm
09:29 AM 68.9°F20.5°C 53.1°F11.7°C 57% 6.9 mph NE11.1 kmh NE 13.6 mph21.9 kmh 29.88 in1011.9 mb 0.00 in0.0 mm 0.00 in0.0 mm 0.00 in0.0 mm
09:24 AM 68.7°F20.4°C 52.9°F11.6°C 57% 11.4 mph NW18.3 kmh NW 13.6 mph21.9 kmh 29.88 in1011.9 mb 0.00 in0.0 mm 0.00 in0.0 mm 0.00 in0.0 mm
09:19 AM 68.0°F20.0°C 52.2°F11.2°C 57% 8.3 mph NW13.4 kmh NW 10.7 mph17.2 kmh 29.88 in1011.9 mb 0.00 in0.0 mm 0.00 in0.0 mm 0.00 in0.0 mm
09:14 AM 67.1°F19.5°C 51.8°F11.0°C 58% 5.4 mph W8.7 kmh W 13.0 mph20.9 kmh 29.88 in1011.9 mb 0.00 in0.0 mm 0.00 in0.0 mm 0.00 in0.0 mm
09:08 AM 67.3°F19.6°C 52.0°F11.1°C 58% 7.6 mph W12.2 kmh W 11.4 mph18.3 kmh 29.88 in1011.9 mb 0.00 in0.0 mm 0.00 in0.0 mm 0.00 in0.0 mm
09:03 AM 66.9°F19.4°C 51.6°F10.9°C 58% 9.2 mph NW14.8 kmh NW 13.0 mph20.9 kmh 29.88 in1011.9 mb 0.00 in0.0 mm 0.00 in0.0 mm 0.00 in0.0 mm
08:58 AM 67.1°F19.5°C 52.7°F11.5°C 60% 7.6 mph WNW12.2 kmh WNW 9.8 mph15.8 kmh 29.88 in1011.9 mb 0.00 in0.0 mm 0.00 in0.0 mm 0.00 in0.0 mm
08:53 AM 66.2°F19.0°C 52.0°F11.1°C 60% 6.0 mph NW9.7 kmh NW 11.4 mph18.3 kmh 29.88 in1011.9 mb 0.00 in0.0 mm 0.00 in0.0 mm 0.00 in0.0 mm
08:48 AM 66.2°F19.0°C 51.4°F10.8°C 59% 6.9 mph NW11.1 kmh NW 10.7 mph17.2 kmh 29.88 in1011.9 mb 0.00 in0.0 mm 0.00 in0.0 mm 0.00 in0.0 mm
08:43 AM 66.2°F19.0°C 52.0°F11.1°C 60% 4.5 mph W7.2 kmh W 8.3 mph13.4 kmh 29.88 in1011.9 mb 0.00 in0.0 mm 0.00 in0.0 mm 0.00 in0.0 mm
08:37 AM 65.1°F18.4°C 51.3°F10.7°C 61% 5.4 mph NW8.7 kmh NW 9.2 mph14.8 kmh 29.88 in1011.9 mb 0.00 in0.0 mm 0.00 in0.0 mm 0.00 in0.0 mm
08:32 AM 64.4°F18.0°C 50.7°F10.4°C 61% 4.5 mph NW7.2 kmh NW 9.8 mph15.8 kmh 29.89 in1012.2 mb 0.00 in0.0 mm 0.00 in0.0 mm 0.00 in0.0 mm
08:27 AM 64.6°F18.1°C 50.9°F10.5°C 61% 5.4 mph NW8.7 kmh NW 7.6 mph12.2 kmh 29.89 in1012.2 mb 0.00 in0.0 mm 0.00 in0.0 mm 0.00 in0.0 mm
08:22 AM 64.2°F17.9°C 50.9°F10.5°C 62% 6.0 mph NW9.7 kmh NW 9.8 mph15.8 kmh 29.88 in1011.9 mb 0.00 in0.0 mm 0.00 in0.0 mm 0.00 in0.0 mm
08:17 AM 64.2°F17.9°C 50.9°F10.5°C 62% 8.3 mph W13.4 kmh W 10.7 mph17.2 kmh 29.88 in1011.9 mb 0.00 in0.0 mm 0.00 in0.0 mm 0.00 in0.0 mm
08:12 AM 63.9°F17.7°C 50.5°F10.3°C 62% 3.1 mph NE5.0 kmh NE 7.6 mph12.2 kmh 29.88 in1011.9 mb 0.00 in0.0 mm 0.00 in0.0 mm 0.00 in0.0 mm
08:06 AM 63.1°F17.3°C 49.8°F9.9°C 62% 3.1 mph W5.0 kmh W 7.6 mph12.2 kmh 29.88 in1011.9 mb 0.00 in0.0 mm 0.00 in0.0 mm 0.00 in0.0 mm
08:01 AM 62.6°F17.0°C 49.5°F9.7°C 62% 3.1 mph NE5.0 kmh NE 7.6 mph12.2 kmh 29.89 in1012.2 mb 0.00 in0.0 mm 0.00 in0.0 mm 0.00 in0.0 mm
07:56 AM 61.7°F16.5°C 48.6°F9.2°C 62% 2.2 mph 3.5 kmh 8.3 mph13.4 kmh 29.88 in1011.9 mb 0.00 in0.0 mm 0.00 in0.0 mm 0.00 in0.0 mm
07:51 AM 61.7°F16.5°C 48.6°F9.2°C 62% 4.5 mph NW7.2 kmh NW 7.6 mph12.2 kmh 29.89 in1012.2 mb 0.00 in0.0 mm 0.00 in0.0 mm 0.00 in0.0 mm
07:46 AM 61.2°F16.2°C 48.0°F8.9°C 62% 3.1 mph NW5.0 kmh NW 6.9 mph11.1 kmh 29.88 in1011.9 mb 0.00 in0.0 mm 0.00 in0.0 mm 0.00 in0.0 mm
07:41 AM 60.8°F16.0°C 48.2°F9.0°C 63% 3.1 mph NNW5.0 kmh NNW 6.9 mph11.1 kmh 29.88 in1011.9 mb 0.00 in0.0 mm 0.00 in0.0 mm 0.00 in0.0 mm
07:35 AM 60.3°F15.7°C 48.0°F8.9°C 64% 3.1 mph NW5.0 kmh NW 6.0 mph9.7 kmh 29.89 in1012.2 mb 0.00 in0.0 mm 0.00 in0.0 mm 0.00 in0.0 mm
07:30 AM 59.9°F15.5°C 48.0°F8.9°C 65% 4.5 mph 7.2 kmh 6.0 mph9.7 kmh 29.88 in1011.9 mb 0.00 in0.0 mm 0.00 in0.0 mm 0.00 in0.0 mm
07:25 AM 59.4°F15.2°C 47.7°F8.7°C 65% 3.1 mph NNE5.0 kmh NNE 4.5 mph7.2 kmh 30.47 in1031.8 mb 0.00 in0.0 mm 0.00 in0.0 mm 0.00 in0.0 mm
07:20 AM 58.8°F14.9°C 47.8°F8.8°C 67% 1.6 mph NNW2.6 kmh NNW 4.5 mph7.2 kmh 29.88 in1011.9 mb 0.00 in0.0 mm 0.00 in0.0 mm 0.00 in0.0 mm
07:15 AM 58.3°F14.6°C 47.8°F8.8°C 68% 2.2 mph 3.5 kmh 4.5 mph7.2 kmh 29.88 in1011.9 mb 0.00 in0.0 mm 0.00 in0.0 mm 0.00 in0.0 mm
07:09 AM 57.6°F14.2°C 47.1°F8.4°C 68% 2.2 mph NW3.5 kmh NW 5.4 mph8.7 kmh 29.88 in1011.9 mb 0.00 in0.0 mm 0.00 in0.0 mm 0.00 in0.0 mm
07:04 AM 57.4°F14.1°C 47.7°F8.7°C 70% 3.1 mph 5.0 kmh 5.4 mph8.7 kmh 29.88 in1011.9 mb 0.00 in0.0 mm 0.00 in0.0 mm 0.00 in0.0 mm
06:59 AM 56.5°F13.6°C 47.1°F8.4°C 71% 2.2 mph W3.5 kmh W 3.8 mph6.1 kmh 29.88 in1011.9 mb 0.00 in0.0 mm 0.00 in0.0 mm 0.00 in0.0 mm
06:54 AM 56.1°F13.4°C 47.3°F8.5°C 72% 2.2 mph NW3.5 kmh NW 3.8 mph6.1 kmh 29.88 in1011.9 mb 0.00 in0.0 mm 0.00 in0.0 mm 0.00 in0.0 mm
06:49 AM 55.6°F13.1°C 47.1°F8.4°C 73% 2.2 mph NW3.5 kmh NW 4.5 mph7.2 kmh 29.87 in1011.5 mb 0.00 in0.0 mm 0.00 in0.0 mm 0.00 in0.0 mm
06:44 AM 54.9°F12.7°C 47.1°F8.4°C 75% 2.2 mph NW3.5 kmh NW 3.8 mph6.1 kmh 29.87 in1011.5 mb 0.00 in0.0 mm 0.00 in0.0 mm 0.00 in0.0 mm
06:38 AM 53.8°F12.1°C 46.4°F8.0°C 76% 2.2 mph NW3.5 kmh NW 4.5 mph7.2 kmh 29.87 in1011.5 mb 0.00 in0.0 mm 0.00 in0.0 mm 0.00 in0.0 mm
06:33 AM 52.9°F11.6°C 46.2°F7.9°C 78% 1.6 mph NW2.6 kmh NW 3.8 mph6.1 kmh 29.87 in1011.5 mb 0.00 in0.0 mm 0.00 in0.0 mm 0.00 in0.0 mm
06:28 AM 51.6°F10.9°C 45.3°F7.4°C 79% 2.2 mph NW3.5 kmh NW 3.8 mph6.1 kmh 29.87 in1011.5 mb 0.00 in0.0 mm 0.00 in0.0 mm 0.00 in0.0 mm
06:23 AM 51.3°F10.7°C 45.0°F7.2°C 79% 1.6 mph 2.6 kmh 3.1 mph5.0 kmh 29.87 in1011.5 mb 0.00 in0.0 mm 0.00 in0.0 mm 0.00 in0.0 mm
06:18 AM 51.3°F10.7°C 45.0°F7.2°C 79% 0.7 mph W1.1 kmh W 2.2 mph3.5 kmh 29.87 in1011.5 mb 0.00 in0.0 mm 0.00 in0.0 mm 0.00 in0.0 mm
06:13 AM 51.3°F10.7°C 45.0°F7.2°C 79% 1.6 mph W2.6 kmh W 2.2 mph3.5 kmh 29.87 in1011.5 mb 0.00 in0.0 mm 0.00 in0.0 mm 0.00 in0.0 mm
06:07 AM 51.1°F10.6°C 44.8°F7.1°C 79% 0.7 mph NW1.1 kmh NW 1.6 mph2.6 kmh 29.86 in1011.2 mb 0.00 in0.0 mm 0.00 in0.0 mm 0.00 in0.0 mm
06:02 AM 51.1°F10.6°C 44.8°F7.1°C 79% 0.7 mph NW1.1 kmh NW 1.6 mph2.6 kmh 29.86 in1011.2 mb 0.00 in0.0 mm 0.00 in0.0 mm 0.00 in0.0 mm
05:57 AM 51.3°F10.7°C 45.0°F7.2°C 79% Calm Calm 1.6 mph2.6 kmh 29.86 in1011.2 mb 0.00 in0.0 mm 0.00 in0.0 mm 0.00 in0.0 mm
05:52 AM 51.3°F10.7°C 45.0°F7.2°C 79% Calm Calm 1.6 mph2.6 kmh 29.86 in1011.2 mb 0.00 in0.0 mm 0.00 in0.0 mm 0.00 in0.0 mm
05:47 AM 51.4°F10.8°C 44.8°F7.1°C 78% Calm Calm 0.7 mph1.1 kmh 29.86 in1011.2 mb 0.00 in0.0 mm 0.00 in0.0 mm 0.00 in0.0 mm
05:42 AM 51.8°F11.0°C 44.8°F7.1°C 77% Calm Calm 1.6 mph2.6 kmh 29.86 in1011.2 mb 0.00 in0.0 mm 0.00 in0.0 mm 0.00 in0.0 mm
05:36 AM 52.2°F11.2°C 45.1°F7.3°C 77% 0.7 mph 1.1 kmh 2.2 mph3.5 kmh 29.86 in1011.2 mb 0.00 in0.0 mm 0.00 in0.0 mm 0.00 in0.0 mm
05:31 AM 52.3°F11.3°C 45.3°F7.4°C 77% 1.6 mph NW2.6 kmh NW 3.1 mph5.0 kmh 29.86 in1011.2 mb 0.00 in0.0 mm 0.00 in0.0 mm 0.00 in0.0 mm
05:26 AM 52.3°F11.3°C 45.3°F7.4°C 77% 2.2 mph NW3.5 kmh NW 3.1 mph5.0 kmh 29.86 in1011.2 mb 0.00 in0.0 mm 0.00 in0.0 mm 0.00 in0.0 mm
05:21 AM 52.3°F11.3°C 45.0°F7.2°C 76% 1.6 mph NW2.6 kmh NW 2.2 mph3.5 kmh 29.86 in1011.2 mb 0.00 in0.0 mm 0.00 in0.0 mm 0.00 in0.0 mm
05:16 AM 52.5°F11.4°C 45.1°F7.3°C 76% 0.7 mph NW1.1 kmh NW 2.2 mph3.5 kmh 29.85 in1010.8 mb 0.00 in0.0 mm 0.00 in0.0 mm 0.00 in0.0 mm
05:11 AM 52.3°F11.3°C 45.0°F7.2°C 76% 1.6 mph NW2.6 kmh NW 2.2 mph3.5 kmh 29.85 in1010.8 mb 0.00 in0.0 mm 0.00 in0.0 mm 0.00 in0.0 mm
05:05 AM 52.5°F11.4°C 44.8°F7.1°C 75% 0.7 mph NW1.1 kmh NW 1.6 mph2.6 kmh 29.85 in1010.8 mb 0.00 in0.0 mm 0.00 in0.0 mm 0.00 in0.0 mm
05:00 AM 52.7°F11.5°C 45.0°F7.2°C 75% 0.7 mph NW1.1 kmh NW 1.6 mph2.6 kmh 29.86 in1011.2 mb 0.00 in0.0 mm 0.00 in0.0 mm 0.00 in0.0 mm
04:55 AM 53.2°F11.8°C 45.5°F7.5°C 75% Calm Calm 2.2 mph3.5 kmh 29.85 in1010.8 mb 0.00 in0.0 mm 0.00 in0.0 mm 0.00 in0.0 mm
04:50 AM 53.4°F11.9°C 45.7°F7.6°C 75% 0.7 mph 1.1 kmh 3.8 mph6.1 kmh 29.86 in1011.2 mb 0.00 in0.0 mm 0.00 in0.0 mm 0.00 in0.0 mm
04:45 AM 53.6°F12.0°C 45.5°F7.5°C 74% 1.6 mph W2.6 kmh W 3.1 mph5.0 kmh 29.86 in1011.2 mb 0.00 in0.0 mm 0.00 in0.0 mm 0.00 in0.0 mm
04:40 AM 53.8°F12.1°C 45.7°F7.6°C 74% 0.7 mph W1.1 kmh W 2.2 mph3.5 kmh 29.86 in1011.2 mb 0.00 in0.0 mm 0.00 in0.0 mm 0.00 in0.0 mm
04:34 AM 54.0°F12.2°C 45.9°F7.7°C 74% 1.6 mph 2.6 kmh 3.1 mph5.0 kmh 29.86 in1011.2 mb 0.00 in0.0 mm 0.00 in0.0 mm 0.00 in0.0 mm
04:29 AM 54.1°F12.3°C 46.0°F7.8°C 74% 1.6 mph SW2.6 kmh SW 3.8 mph6.1 kmh 29.86 in1011.2 mb 0.00 in0.0 mm 0.00 in0.0 mm 0.00 in0.0 mm
04:24 AM 54.3°F12.4°C 45.9°F7.7°C 73% 2.2 mph NW3.5 kmh NW 4.5 mph7.2 kmh 29.86 in1011.2 mb 0.00 in0.0 mm 0.00 in0.0 mm 0.00 in0.0 mm
04:19 AM 54.5°F12.5°C 46.0°F7.8°C 73% 3.8 mph W6.1 kmh W 6.0 mph9.7 kmh 29.86 in1011.2 mb 0.00 in0.0 mm 0.00 in0.0 mm 0.00 in0.0 mm
04:14 AM 54.7°F12.6°C 46.2°F7.9°C 73% 3.1 mph NW5.0 kmh NW 6.9 mph11.1 kmh 29.86 in1011.2 mb 0.00 in0.0 mm 0.00 in0.0 mm 0.00 in0.0 mm
04:09 AM 54.7°F12.6°C 46.2°F7.9°C 73% 3.8 mph NW6.1 kmh NW 6.9 mph11.1 kmh 29.86 in1011.2 mb 0.00 in0.0 mm 0.00 in0.0 mm 0.00 in0.0 mm
04:03 AM 54.9°F12.7°C 46.4°F8.0°C 73% 3.1 mph NW5.0 kmh NW 5.4 mph8.7 kmh 29.86 in1011.2 mb 0.00 in0.0 mm 0.00 in0.0 mm 0.00 in0.0 mm
03:58 AM 55.0°F12.8°C 46.6°F8.1°C 73% 3.8 mph W6.1 kmh W 5.4 mph8.7 kmh 29.86 in1011.2 mb 0.00 in0.0 mm 0.00 in0.0 mm 0.00 in0.0 mm
03:53 AM 55.0°F12.8°C 46.6°F8.1°C 73% 3.1 mph NW5.0 kmh NW 5.4 mph8.7 kmh 29.86 in1011.2 mb 0.00 in0.0 mm 0.00 in0.0 mm 0.00 in0.0 mm
03:48 AM 55.2°F12.9°C 46.8°F8.2°C 73% 2.2 mph SSW3.5 kmh SSW 6.0 mph9.7 kmh 29.86 in1011.2 mb 0.00 in0.0 mm 0.00 in0.0 mm 0.00 in0.0 mm
03:43 AM 55.4°F13.0°C 46.2°F7.9°C 71% 4.5 mph NW7.2 kmh NW 6.0 mph9.7 kmh 29.86 in1011.2 mb 0.00 in0.0 mm 0.00 in0.0 mm 0.00 in0.0 mm
03:38 AM 55.6°F13.1°C 46.4°F8.0°C 71% 3.1 mph NW5.0 kmh NW 6.9 mph11.1 kmh 29.86 in1011.2 mb 0.00 in0.0 mm 0.00 in0.0 mm 0.00 in0.0 mm
03:32 AM 55.9°F13.3°C 46.8°F8.2°C 71% 2.2 mph NW3.5 kmh NW 6.9 mph11.1 kmh 29.86 in1011.2 mb 0.00 in0.0 mm 0.00 in0.0 mm 0.00 in0.0 mm
03:27 AM 56.1°F13.4°C 46.8°F8.2°C 71% 2.2 mph W3.5 kmh W 6.9 mph11.1 kmh 29.86 in1011.2 mb 0.00 in0.0 mm 0.00 in0.0 mm 0.00 in0.0 mm
03:22 AM 56.1°F13.4°C 46.8°F8.2°C 71% 4.5 mph NW7.2 kmh NW 9.2 mph14.8 kmh 29.87 in1011.5 mb 0.00 in0.0 mm 0.00 in0.0 mm 0.00 in0.0 mm
03:17 AM 56.5°F13.6°C 47.1°F8.4°C 71% 4.5 mph W7.2 kmh W 7.6 mph12.2 kmh 29.87 in1011.5 mb 0.00 in0.0 mm 0.00 in0.0 mm 0.00 in0.0 mm
03:12 AM 56.5°F13.6°C 47.1°F8.4°C 71% 3.8 mph NW6.1 kmh NW 6.9 mph11.1 kmh 29.87 in1011.5 mb 0.00 in0.0 mm 0.00 in0.0 mm 0.00 in0.0 mm
03:07 AM 56.7°F13.7°C 47.3°F8.5°C 71% 3.1 mph NW5.0 kmh NW 9.2 mph14.8 kmh 29.87 in1011.5 mb 0.00 in0.0 mm 0.00 in0.0 mm 0.00 in0.0 mm
03:01 AM 56.7°F13.7°C 47.3°F8.5°C 71% 3.1 mph W5.0 kmh W 6.9 mph11.1 kmh 29.87 in1011.5 mb 0.00 in0.0 mm 0.00 in0.0 mm 0.00 in0.0 mm
02:56 AM 56.7°F13.7°C 46.9°F8.3°C 70% 3.8 mph W6.1 kmh W 6.9 mph11.1 kmh 29.87 in1011.5 mb 0.00 in0.0 mm 0.00 in0.0 mm 0.00 in0.0 mm
02:51 AM 56.7°F13.7°C 46.9°F8.3°C 70% 3.8 mph NW6.1 kmh NW 6.9 mph11.1 kmh 29.87 in1011.5 mb 0.00 in0.0 mm 0.00 in0.0 mm 0.00 in0.0 mm
02:46 AM 57.0°F13.9°C 47.3°F8.5°C 70% 5.4 mph SW8.7 kmh SW 7.6 mph12.2 kmh 29.87 in1011.5 mb 0.00 in0.0 mm 0.00 in0.0 mm 0.00 in0.0 mm
02:41 AM 57.2°F14.0°C 46.8°F8.2°C 68% 4.5 mph NW7.2 kmh NW 9.8 mph15.8 kmh 29.87 in1011.5 mb 0.00 in0.0 mm 0.00 in0.0 mm 0.00 in0.0 mm
02:36 AM 57.2°F14.0°C 46.8°F8.2°C 68% 4.5 mph WNW7.2 kmh WNW 7.6 mph12.2 kmh 29.87 in1011.5 mb 0.00 in0.0 mm 0.00 in0.0 mm 0.00 in0.0 mm
02:30 AM 57.2°F14.0°C 46.8°F8.2°C 68% 4.5 mph NW7.2 kmh NW 8.3 mph13.4 kmh 29.87 in1011.5 mb 0.00 in0.0 mm 0.00 in0.0 mm 0.00 in0.0 mm
02:25 AM 57.2°F14.0°C 46.8°F8.2°C 68% 3.8 mph NW6.1 kmh NW 7.6 mph12.2 kmh 29.88 in1011.9 mb 0.00 in0.0 mm 0.00 in0.0 mm 0.00 in0.0 mm
02:20 AM 57.6°F14.2°C 47.1°F8.4°C 68% 4.5 mph W7.2 kmh W 6.9 mph11.1 kmh 29.88 in1011.9 mb 0.00 in0.0 mm 0.00 in0.0 mm 0.00 in0.0 mm
02:15 AM 57.7°F14.3°C 47.3°F8.5°C 68% 3.8 mph NW6.1 kmh NW 6.0 mph9.7 kmh 29.88 in1011.9 mb 0.00 in0.0 mm 0.00 in0.0 mm 0.00 in0.0 mm
02:10 AM 57.7°F14.3°C 47.3°F8.5°C 68% 3.1 mph W5.0 kmh W 7.6 mph12.2 kmh 29.88 in1011.9 mb 0.00 in0.0 mm 0.00 in0.0 mm 0.00 in0.0 mm
02:04 AM 57.7°F14.3°C 47.3°F8.5°C 68% 3.8 mph WNW6.1 kmh WNW -- 29.88 in1011.9 mb 0.00 in0.0 mm 0.00 in0.0 mm 0.00 in0.0 mm
02:02 AM 57.9°F14.4°C 47.5°F8.6°C 68% 3.8 mph WNW6.1 kmh WNW -- 29.88 in1011.9 mb 0.00 in0.0 mm 0.00 in0.0 mm 0.00 in0.0 mm
01:56 AM 57.9°F14.4°C 47.8°F8.8°C 69% 2.2 mph NW3.5 kmh NW 5.4 mph8.7 kmh 29.88 in1011.9 mb 0.00 in0.0 mm 0.00 in0.0 mm 0.00 in0.0 mm
01:51 AM 57.9°F14.4°C 47.8°F8.8°C 69% 2.2 mph W3.5 kmh W 6.9 mph11.1 kmh 29.89 in1012.2 mb 0.00 in0.0 mm 0.00 in0.0 mm 0.00 in0.0 mm
01:46 AM 57.9°F14.4°C 48.2°F9.0°C 70% 3.1 mph NW5.0 kmh NW 6.0 mph9.7 kmh 29.88 in1011.9 mb 0.00 in0.0 mm 0.00 in0.0 mm 0.00 in0.0 mm
01:41 AM 57.9°F14.4°C 48.2°F9.0°C 70% 2.2 mph NW3.5 kmh NW 6.0 mph9.7 kmh 29.89 in1012.2 mb 0.00 in0.0 mm 0.00 in0.0 mm 0.00 in0.0 mm
01:36 AM 57.9°F14.4°C 48.2°F9.0°C 70% 2.2 mph W3.5 kmh W 5.4 mph8.7 kmh 29.88 in1011.9 mb 0.00 in0.0 mm 0.00 in0.0 mm 0.00 in0.0 mm
01:30 AM 58.1°F14.5°C 48.4°F9.1°C 70% 3.1 mph NW5.0 kmh NW 5.4 mph8.7 kmh 29.89 in1012.2 mb 0.00 in0.0 mm 0.00 in0.0 mm 0.00 in0.0 mm
01:25 AM 58.3°F14.6°C 48.6°F9.2°C 70% 2.2 mph NW3.5 kmh NW 6.0 mph9.7 kmh 29.89 in1012.2 mb 0.00 in0.0 mm 0.00 in0.0 mm 0.00 in0.0 mm
01:20 AM 58.6°F14.8°C 48.9°F9.4°C 70% 3.1 mph NW5.0 kmh NW 6.9 mph11.1 kmh 29.89 in1012.2 mb 0.00 in0.0 mm 0.00 in0.0 mm 0.00 in0.0 mm
01:15 AM 58.6°F14.8°C 48.9°F9.4°C 70% 3.8 mph W6.1 kmh W 8.3 mph13.4 kmh 29.89 in1012.2 mb 0.00 in0.0 mm 0.00 in0.0 mm 0.00 in0.0 mm
01:10 AM 59.0°F15.0°C 48.9°F9.4°C 69% 3.1 mph WNW5.0 kmh WNW 9.8 mph15.8 kmh 29.89 in1012.2 mb 0.00 in0.0 mm 0.00 in0.0 mm 0.00 in0.0 mm
01:05 AM 59.0°F15.0°C 48.9°F9.4°C 69% 6.0 mph NW9.7 kmh NW 9.2 mph14.8 kmh 29.89 in1012.2 mb 0.00 in0.0 mm 0.00 in0.0 mm 0.00 in0.0 mm
12:59 AM 59.2°F15.1°C 49.1°F9.5°C 69% 6.9 mph NW11.1 kmh NW 9.2 mph14.8 kmh 29.89 in1012.2 mb 0.00 in0.0 mm 0.00 in0.0 mm 0.00 in0.0 mm
12:54 AM 59.2°F15.1°C 49.1°F9.5°C 69% 6.0 mph WNW9.7 kmh WNW 8.3 mph13.4 kmh 29.89 in1012.2 mb 0.00 in0.0 mm 0.00 in0.0 mm 0.00 in0.0 mm
12:49 AM 59.2°F15.1°C 49.1°F9.5°C 69% 5.4 mph WSW8.7 kmh WSW 7.6 mph12.2 kmh 29.90 in1012.5 mb 0.00 in0.0 mm 0.00 in0.0 mm 0.00 in0.0 mm
12:44 AM 59.2°F15.1°C 49.1°F9.5°C 69% 3.1 mph W5.0 kmh W 9.2 mph14.8 kmh 29.89 in1012.2 mb 0.00 in0.0 mm 0.00 in0.0 mm 0.00 in0.0 mm
12:39 AM 59.0°F15.0°C 48.9°F9.4°C 69% 6.0 mph W9.7 kmh W 7.6 mph12.2 kmh 29.90 in1012.5 mb 0.00 in0.0 mm 0.00 in0.0 mm 0.00 in0.0 mm
12:34 AM 59.0°F15.0°C 49.3°F9.6°C 70% 2.2 mph NW3.5 kmh NW 8.3 mph13.4 kmh 29.89 in1012.2 mb 0.00 in0.0 mm 0.00 in0.0 mm 0.00 in0.0 mm
12:28 AM 58.8°F14.9°C 49.5°F9.7°C 71% 3.1 mph W5.0 kmh W 5.4 mph8.7 kmh 29.90 in1012.5 mb 0.00 in0.0 mm 0.00 in0.0 mm 0.00 in0.0 mm
12:23 AM 58.8°F14.9°C 49.5°F9.7°C 71% 3.8 mph NW6.1 kmh NW 6.0 mph9.7 kmh 29.89 in1012.2 mb 0.00 in0.0 mm 0.00 in0.0 mm 0.00 in0.0 mm
12:18 AM 58.8°F14.9°C 49.5°F9.7°C 71% 3.1 mph NW5.0 kmh NW 5.4 mph8.7 kmh 29.90 in1012.5 mb 0.00 in0.0 mm 0.00 in0.0 mm 0.00 in0.0 mm
12:13 AM 59.0°F15.0°C 49.3°F9.6°C 70% 3.8 mph NW6.1 kmh NW 6.0 mph9.7 kmh 29.90 in1012.5 mb 0.00 in0.0 mm 0.00 in0.0 mm 0.00 in0.0 mm
12:08 AM 59.2°F15.1°C 49.5°F9.7°C 70% 5.4 mph NW8.7 kmh NW 7.6 mph12.2 kmh 29.89 in1012.2 mb 0.00 in0.0 mm 0.00 in0.0 mm 0.00 in0.0 mm
12:03 AM 59.2°F15.1°C 49.5°F9.7°C 70% 2.2 mph 3.5 kmh 6.0 mph9.7 kmh 29.89 in1012.2 mb 0.00 in0.0 mm 0.00 in0.0 mm 0.00 in0.0 mm